Contact Us:
Email: info@sawbill.com
Phone: (218)663-7150
Fax: (218)663-7980
Mail: 4620 Sawbill Trail
Box 2129
Tofte, MN 55615


Powered by
Movable Type 3.15
 
Sawbill Weather History Archives: April 2010
Current Sawbill Weather History | « March 2010 | May 2010 »


Date

High
Temperature

Low
Temperature

Barometric
Pressure

Relative
Humidity 7AM

9 AM
Temperature

Moisture

Snow

4/30/10 59 45 29.56 98% 46 .31"
4/29/10 58 39 29.56 87% 47 .06"
4/28/10 56 41 29.91 55% 38 0
4/27/10 62 24 30.10 55% 28 0
4/26/10 59 29 30.24 54% 31 0
4/25/10 57 35 30.09 68% 36 0
4/24/10 65 45 30.06 40% 48 0
4/23/10 66 38 30.12 43% 45 0
4/22/10 54 26 30.06 43% 47 0
4/21/10 63 24 30.12 72% 26 0
4/20/10 62 27 30.13 64% 27 0
4/19/10 63 33 30.27 50% 46 0
4/18/10 59 33 30.43 63% 44 0
4/17/10 56 27 30.47 72% 34 0
4/16/10 50 36 30.45 53% 39 0
4/15/10 66 36 30.27 59% 36 Trace
4/14/10 59 45 30.18 98% 50 .07"
4/13/10 52 39 30.42 79% 45 0
4/12/10 56 34 30.56 56% 39 0
4/11/10 58 33 30.56 59% 40 0
4/10/10 55 33 30.47 54% 33 0
4/9/10 50 26 30.24 86% 36 .04"
4/8/10 41 24 30.18 68% 26 0
4/7/10 40 26 30.15 53% 27 0
4/6/10 54 26 30.02 78% 28 0
4/5/10 57 33 30.00 53% 39 0
4/4/10 44 32 30.06 91% 39 .25" 1"
4/3/10 43 31 30.00 82% 34 Trace
4/2/10 64 38 29.68 62% 39 Trace
4/1/10 64 37 29.77 79% 47 0
 


Home I Trip Planning I Rentals and Outfitting I Reservations I Campgrounds I Sawbill Store I Sawbill News I Contact

© 1997 - 2017, Sawbill Canoe Outfitters, Inc. I Privacy Policy